^^
Datos históricos de la estación: Murcia-Puente Tocinos
Diario Informe para Mayo 19, 2019 Unidades:  Ambas    Ingés   Métrico
Diario Semanal Mensual Anual
  Máxima: Mínima: Promedio:
Temperatura: 77.4 °F /  25.2 °C 58.3 °F /  14.6 °C 67.5 °F /  19.7 °C
Punto de rocio: 56.3 °F /  13.5 °C 32.4 °F /  0.2 °C 44.1 °F /  6.7 °C
Humedad: 84% 19.8% 48%
Velocidad viento: 12.5mph /  20.1km/h - 4.7mph /  7.6km/h
Racha viento: 22mph /  35.4km/h - -
Viento- - SSO
Presión: 29.8 in /  1010.3 hPa 29.7 in /  1006.9 hPa -
Precipitación: 0 in /  0.0 mm    
 
 
Tabla de datos para Mayo 19, 2019
Hora Temperatura Punto de rocio Presión Viento Velocidad viento Racha viento Humedad Intensidad lluvia(por hora) Nubes
00:04 62.4 °F /  16.9 °C 56.1 °F /  13.4 °C 29.8in /  1009.3hPa ENE 1.8mph /  2.9km/h 5mph /  8km/h 80% 0in /  0.0mm
00:09 62.2 °F /  16.8 °C 56.1 °F /  13.4 °C 29.8in /  1009.2hPa ENE 1.9mph /  3km/h 5mph /  8km/h 80.6% 0in /  0.0mm
00:14 62.2 °F /  16.8 °C 56.3 °F /  13.5 °C 29.8in /  1009.2hPa NNE 2mph /  3.2km/h 4mph /  6.4km/h 81% 0in /  0.0mm
00:19 62.1 °F /  16.7 °C 56.1 °F /  13.4 °C 29.8in /  1009.2hPa NNO 2mph /  3.2km/h 5mph /  8km/h 80.8% 0in /  0.0mm
00:24 62.1 °F /  16.7 °C 56.1 °F /  13.4 °C 29.8in /  1009.1hPa NNO 2mph /  3.2km/h 5mph /  8km/h 81% 0in /  0.0mm
00:29 61.9 °F /  16.6 °C 55.9 °F /  13.3 °C 29.8in /  1009.1hPa NNO 1.9mph /  3.1km/h 5mph /  8km/h 81% 0in /  0.0mm
00:34 61.5 °F /  16.4 °C 55.8 °F /  13.2 °C 29.8in /  1009.1hPa NE 1.8mph /  2.9km/h 4.6mph /  7.4km/h 81% 0in /  0.0mm
00:39 61.5 °F /  16.4 °C 55.9 °F /  13.3 °C 29.8in /  1009.1hPa NE 2.1mph /  3.3km/h 5mph /  8km/h 81.8% 0in /  0.0mm
00:44 61.3 °F /  16.3 °C 55.6 °F /  13.1 °C 29.8in /  1009.1hPa Este 2.4mph /  3.9km/h 4mph /  6.4km/h 81.3% 0in /  0.0mm
00:49 61.2 °F /  16.2 °C 55 °F /  12.8 °C 29.8in /  1009.1hPa SE 2.4mph /  3.9km/h 5mph /  8km/h 80% 0in /  0.0mm
00:54 61.2 °F /  16.2 °C 55 °F /  12.8 °C 29.8in /  1008.9hPa SE 2.4mph /  3.9km/h 5.9mph /  9.5km/h 80.3% 0in /  0.0mm
00:59 61.2 °F /  16.2 °C 55.2 °F /  12.9 °C 29.8in /  1008.9hPa NNO 2.4mph /  3.9km/h 6mph /  9.7km/h 81% 0in /  0.0mm
01:04 61 °F /  16.1 °C 55.2 °F /  12.9 °C 29.8in /  1009.2hPa NNO 2.4mph /  3.9km/h 6mph /  9.7km/h 81.4% 0in /  0.0mm
01:09 60.6 °F /  15.9 °C 55.2 °F /  12.9 °C 29.8in /  1009.2hPa NNO 2mph /  3.2km/h 3.6mph /  5.8km/h 82% 0in /  0.0mm
01:14 60.6 °F /  15.9 °C 55 °F /  12.8 °C 29.8in /  1009.2hPa NO 1.4mph /  2.2km/h 5.4mph /  8.7km/h 82.2% 0in /  0.0mm
01:19 60.3 °F /  15.7 °C 55 °F /  12.8 °C 29.8in /  1009.2hPa Oeste 2mph /  3.2km/h 6mph /  9.7km/h 82.4% 0in /  0.0mm
01:24 60.3 °F /  15.7 °C 55 °F /  12.8 °C 29.8in /  1009.1hPa Oeste 2.9mph /  4.7km/h 6mph /  9.7km/h 83% 0in /  0.0mm
01:29 60.1 °F /  15.6 °C 54.9 °F /  12.7 °C 29.8in /  1009.1hPa ONO 2.5mph /  4.1km/h 5mph /  8km/h 83% 0in /  0.0mm
01:34 60.1 °F /  15.6 °C 54.9 °F /  12.7 °C 29.8in /  1009.2hPa ONO 2mph /  3.2km/h 5mph /  8km/h 83% 0in /  0.0mm
01:39 60.1 °F /  15.6 °C 55.2 °F /  12.9 °C 29.8in /  1009.2hPa ONO 1.8mph /  2.9km/h 3mph /  4.8km/h 84% 0in /  0.0mm
01:44 60.1 °F /  15.6 °C 55.2 °F /  12.9 °C 29.8in /  1009.2hPa OSO 1.4mph /  2.2km/h 2.9mph /  4.7km/h 84% 0in /  0.0mm
01:49 60.3 °F /  15.7 °C 55.4 °F /  13 °C 29.8in /  1009.2hPa SSE 1.4mph /  2.2km/h 5.2mph /  8.4km/h 84% 0in /  0.0mm
01:54 60.3 °F /  15.7 °C 55 °F /  12.8 °C 29.8in /  1009.2hPa Sur 1.4mph /  2.2km/h 6.2mph /  10km/h 82.5% 0in /  0.0mm
01:59 60.3 °F /  15.7 °C 54.5 °F /  12.5 °C 29.8in /  1009.2hPa SSO 2.3mph /  3.7km/h 6mph /  9.7km/h 81.4% 0in /  0.0mm
02:04 60.3 °F /  15.7 °C 54.1 °F /  12.3 °C 29.8in /  1009.2hPa Sur 3.6mph /  5.8km/h 6mph /  9.7km/h 80.3% 0in /  0.0mm
02:09 60.1 °F /  15.6 °C 53.8 °F /  12.1 °C 29.8in /  1009.1hPa SSE 3.4mph /  5.5km/h 6mph /  9.7km/h 80% 0in /  0.0mm
02:14 59.9 °F /  15.5 °C 53.8 °F /  12.1 °C 29.8in /  1009.1hPa SSE 3.1mph /  5km/h 6mph /  9.7km/h 80% 0in /  0.0mm
02:19 60.1 °F /  15.6 °C 54 °F /  12.2 °C 29.8in /  1009.1hPa SSE 3mph /  4.9km/h 5.2mph /  8.4km/h 80% 0in /  0.0mm
02:24 60.1 °F /  15.6 °C 54 °F /  12.2 °C 29.8in /  1009.0hPa SSE 2.9mph /  4.7km/h 5.9mph /  9.5km/h 80% 0in /  0.0mm
02:29 60.1 °F /  15.6 °C 54 °F /  12.2 °C 29.8in /  1009.0hPa SSE 3.2mph /  5.1km/h 6mph /  9.7km/h 80% 0in /  0.0mm
02:34 60.3 °F /  15.7 °C 54.1 °F /  12.3 °C 29.8in /  1009.0hPa SSO 3.6mph /  5.8km/h 6.9mph /  11.1km/h 80.2% 0in /  0.0mm
02:39 60.4 °F /  15.8 °C 54.3 °F /  12.4 °C 29.8in /  1009.0hPa SSO 3.4mph /  5.5km/h 7mph /  11.3km/h 80.4% 0in /  0.0mm
02:44 60.6 °F /  15.9 °C 54.3 °F /  12.4 °C 29.8in /  1009.0hPa SSO 3.1mph /  5km/h 5mph /  8km/h 80% 0in /  0.0mm
02:49 60.6 °F /  15.9 °C 54.5 °F /  12.5 °C 29.8in /  1009.0hPa SO 2.7mph /  4.3km/h 5mph /  8km/h 80.1% 0in /  0.0mm
02:54 60.8 °F /  16 °C 54.5 °F /  12.5 °C 29.8in /  1009.0hPa SO 2mph /  3.2km/h 5mph /  8km/h 80% 0in /  0.0mm
02:59 60.6 °F /  15.9 °C 54.1 °F /  12.3 °C 29.8in /  1009.0hPa SO 1.2mph /  1.9km/h 2.3mph /  3.7km/h 79% 0in /  0.0mm
03:04 60.6 °F /  15.9 °C 54.1 °F /  12.3 °C 29.8in /  1009.0hPa Calm   2mph /  3.2km/h 79% 0in /  0.0mm
03:09 60.4 °F /  15.8 °C 54 °F /  12.2 °C 29.8in /  1008.9hPa Calm     79% 0in /  0.0mm
03:14 60.4 °F /  15.8 °C 54.1 °F /  12.3 °C 29.8in /  1008.9hPa Calm   3.5mph /  5.6km/h 79.8% 0in /  0.0mm
03:19 60.3 °F /  15.7 °C 54.3 °F /  12.4 °C 29.8in /  1008.9hPa Calm   3.1mph /  5km/h 80.5% 0in /  0.0mm
03:24 60.3 °F /  15.7 °C 54.3 °F /  12.4 °C 29.8in /  1008.8hPa Calm   4mph /  6.4km/h 81% 0in /  0.0mm
03:29 60.1 °F /  15.6 °C 54.1 °F /  12.3 °C 29.8in /  1008.8hPa OSO 0.7mph /  1.1km/h 4.6mph /  7.4km/h 81% 0in /  0.0mm
03:34 60.1 °F /  15.6 °C 54.1 °F /  12.3 °C 29.8in /  1008.8hPa OSO 1.8mph /  2.9km/h 5mph /  8km/h 81% 0in /  0.0mm
03:39 59.9 °F /  15.5 °C 54.1 °F /  12.3 °C 29.8in /  1008.7hPa OSO 1.9mph /  3km/h 5mph /  8km/h 81% 0in /  0.0mm
03:44 60.1 °F /  15.6 °C 54.1 °F /  12.3 °C 29.8in /  1008.7hPa OSO 2mph /  3.2km/h 5.2mph /  8.4km/h 81% 0in /  0.0mm
03:49 60.1 °F /  15.6 °C 54.1 °F /  12.3 °C 29.8in /  1008.7hPa OSO 2.4mph /  3.9km/h 5.9mph /  9.5km/h 80.7% 0in /  0.0mm
03:54 60.1 °F /  15.6 °C 54 °F /  12.2 °C 29.8in /  1008.5hPa OSO 3.1mph /  5km/h 6.9mph /  11.1km/h 80.1% 0in /  0.0mm
03:59 60.1 °F /  15.6 °C 54 °F /  12.2 °C 29.8in /  1008.5hPa OSO 3.5mph /  5.6km/h 7mph /  11.3km/h 80.1% 0in /  0.0mm
04:04 60.1 °F /  15.6 °C 54 °F /  12.2 °C 29.8in /  1008.5hPa SO 4mph /  6.5km/h 5mph /  8km/h 80% 0in /  0.0mm
04:09 60.1 °F /  15.6 °C 53.8 °F /  12.1 °C 29.8in /  1008.4hPa SSO 3.4mph /  5.5km/h 5.2mph /  8.4km/h 79.9% 0in /  0.0mm
04:14 59.9 °F /  15.5 °C 53.4 °F /  11.9 °C 29.8in /  1008.4hPa SSO 2.4mph /  3.9km/h 5mph /  8km/h 79% 0in /  0.0mm
04:19 59.7 °F /  15.4 °C 53.4 °F /  11.9 °C 29.8in /  1008.4hPa SO 2.4mph /  3.9km/h 5mph /  8km/h 79.7% 0in /  0.0mm
04:24 59.7 °F /  15.4 °C 53.4 °F /  11.9 °C 29.8in /  1008.2hPa SO 2.4mph /  3.9km/h 4mph /  6.4km/h 80% 0in /  0.0mm
04:29 59.5 °F /  15.3 °C 52.9 °F /  11.6 °C 29.8in /  1008.2hPa SE 2.6mph /  4.2km/h 10.7mph /  17.2km/h 78.9% 0in /  0.0mm
04:34 58.6 °F /  14.8 °C 52.2 °F /  11.2 °C 29.8in /  1008.5hPa SSE 2.9mph /  4.7km/h 11mph /  17.7km/h 79.6% 0in /  0.0mm
04:39 58.3 °F /  14.6 °C 52.5 °F /  11.4 °C 29.8in /  1008.5hPa SSO 4mph /  6.4km/h 9mph /  14.5km/h 81.2% 0in /  0.0mm
04:44 58.5 °F /  14.7 °C 52.9 °F /  11.6 °C 29.8in /  1008.5hPa SO 5.9mph /  9.5km/h 7mph /  11.3km/h 82% 0in /  0.0mm
04:49 58.6 °F /  14.8 °C 53.1 °F /  11.7 °C 29.8in /  1008.5hPa SO 5.2mph /  8.4km/h 6.2mph /  10km/h 81.7% 0in /  0.0mm
04:54 59 °F /  15 °C 53.2 °F /  11.8 °C 29.8in /  1008.2hPa SSO 4mph /  6.5km/h 6mph /  9.7km/h 80.9% 0in /  0.0mm
04:59 59.4 °F /  15.2 °C 53.1 °F /  11.7 °C 29.8in /  1008.2hPa Sur 4.2mph /  6.7km/h 7.4mph /  11.9km/h 79.7% 0in /  0.0mm
05:04 59.4 °F /  15.2 °C 52.7 °F /  11.5 °C 29.8in /  1008.3hPa Sur 4.3mph /  6.9km/h 7.4mph /  11.9km/h 78.8% 0in /  0.0mm
05:09 59.4 °F /  15.2 °C 52.5 °F /  11.4 °C 29.8in /  1008.3hPa SSO 4.5mph /  7.2km/h 7mph /  11.3km/h 77.9% 0in /  0.0mm
05:14 59.5 °F /  15.3 °C 52.3 °F /  11.3 °C 29.8in /  1008.3hPa Sur 4.7mph /  7.6km/h 7mph /  11.3km/h 77% 0in /  0.0mm
05:19 59.5 °F /  15.3 °C 52.2 °F /  11.2 °C 29.8in /  1008.3hPa SSE 4.4mph /  7.1km/h 7mph /  11.3km/h 77% 0in /  0.0mm
05:24 59.4 °F /  15.2 °C 51.8 °F /  11 °C 29.8in /  1008.3hPa SSE 4mph /  6.5km/h 6.2mph /  10km/h 76.2% 0in /  0.0mm
05:29 59.2 °F /  15.1 °C 51.1 °F /  10.6 °C 29.8in /  1008.3hPa Sur 3.9mph /  6.2km/h 6.9mph /  11.1km/h 74.6% 0in /  0.0mm
05:34 59 °F /  15 °C 50.2 °F /  10.1 °C 29.8in /  1008.3hPa Sur 3.6mph /  5.8km/h 7mph /  11.3km/h 72.7% 0in /  0.0mm
05:39 59 °F /  15 °C 50 °F /  10 °C 29.8in /  1008.3hPa Sur 4mph /  6.5km/h 8.5mph /  13.7km/h 72% 0in /  0.0mm
05:44 59 °F /  15 °C 49.8 °F /  9.9 °C 29.8in /  1008.3hPa SSO 4.7mph /  7.6km/h 9.2mph /  14.8km/h 71.5% 0in /  0.0mm
05:49 59.2 °F /  15.1 °C 49.6 °F /  9.8 °C 29.8in /  1008.4hPa SO 5.2mph /  8.4km/h 9.2mph /  14.8km/h 71% 0in /  0.0mm
05:54 59.2 °F /  15.1 °C 49.5 °F /  9.7 °C 29.8in /  1008.4hPa SO 6.2mph /  10km/h 9.2mph /  14.8km/h 69.8% 0in /  0.0mm
05:59 59.4 °F /  15.2 °C 49.1 °F /  9.5 °C 29.8in /  1008.4hPa OSO 5.8mph /  9.4km/h 9mph /  14.5km/h 68.5% 0in /  0.0mm
06:04 59.5 °F /  15.3 °C 48.9 °F /  9.4 °C 29.8in /  1008.4hPa OSO 5.4mph /  8.7km/h 9mph /  14.5km/h 68% 0in /  0.0mm
06:09 59.4 °F /  15.2 °C 48.6 °F /  9.2 °C 29.8in /  1008.2hPa OSO 5mph /  8.1km/h 9mph /  14.5km/h 67.5% 0in /  0.0mm
06:14 59.4 °F /  15.2 °C 48 °F /  8.9 °C 29.8in /  1008.2hPa SO 4.3mph /  6.9km/h 8mph /  12.9km/h 66.1% 0in /  0.0mm
06:19 59.4 °F /  15.2 °C 48.2 °F /  9 °C 29.8in /  1008.5hPa SO 4.2mph /  6.7km/h 7mph /  11.3km/h 66.5% 0in /  0.0mm
06:24 59.5 °F /  15.3 °C 48.6 °F /  9.2 °C 29.8in /  1008.5hPa SSO 4mph /  6.5km/h 5mph /  8km/h 67% 0in /  0.0mm
06:29 59.5 °F /  15.3 °C 48.6 °F /  9.2 °C 29.8in /  1008.5hPa SSO 3.3mph /  5.3km/h 5mph /  8km/h 67% 0in /  0.0mm
06:34 59.5 °F /  15.3 °C 48.9 °F /  9.4 °C 29.8in /  1008.5hPa OSO 2mph /  3.2km/h 4.6mph /  7.4km/h 67.7% 0in /  0.0mm
06:39 59.5 °F /  15.3 °C 48.9 °F /  9.4 °C 29.8in /  1008.3hPa ONO 1.9mph /  3.1km/h 5mph /  8km/h 68% 0in /  0.0mm
06:44 59.5 °F /  15.3 °C 48.9 °F /  9.4 °C 29.8in /  1008.3hPa Oeste 1.8mph /  2.9km/h 5mph /  8km/h 68% 0in /  0.0mm
06:49 59.5 °F /  15.3 °C 48.9 °F /  9.4 °C 29.8in /  1008.4hPa Oeste 2.1mph /  3.3km/h 5mph /  8km/h 68% 0in /  0.0mm
06:54 59.4 °F /  15.2 °C 48.7 °F /  9.3 °C 29.8in /  1008.4hPa Oeste 2.4mph /  3.9km/h 5mph /  8km/h 68% 0in /  0.0mm
06:59 59.4 °F /  15.2 °C 48.7 °F /  9.3 °C 29.8in /  1008.4hPa OSO 2.6mph /  4.2km/h 5mph /  8km/h 68% 0in /  0.0mm
07:04 59.4 °F /  15.2 °C 48.6 °F /  9.2 °C 29.8in /  1008.5hPa OSO 2.9mph /  4.6km/h 5mph /  8km/h 67.6% 0in /  0.0mm
07:09 59.4 °F /  15.2 °C 48.4 °F /  9.1 °C 29.8in /  1008.5hPa OSO 2.4mph /  3.8km/h 3mph /  4.8km/h 67% 0in /  0.0mm
07:14 59.4 °F /  15.2 °C 49.1 °F /  9.5 °C 29.8in /  1008.5hPa SSO 1.4mph /  2.2km/h 4.6mph /  7.4km/h 68.6% 0in /  0.0mm
07:19 59.4 °F /  15.2 °C 49.3 °F /  9.6 °C 29.8in /  1008.6hPa SSO 1.6mph /  2.5km/h 5mph /  8km/h 69% 0in /  0.0mm
07:24 59.4 °F /  15.2 °C 48.6 °F /  9.2 °C 29.8in /  1008.6hPa Oeste 1.8mph /  2.9km/h 4.6mph /  7.4km/h 67.4% 0in /  0.0mm
07:29 59.4 °F /  15.2 °C 47.7 °F /  8.7 °C 29.8in /  1008.6hPa ONO 1.9mph /  3km/h 5mph /  8km/h 65.3% 0in /  0.0mm
07:34 59.4 °F /  15.2 °C 48 °F /  8.9 °C 29.8in /  1008.8hPa NO 2mph /  3.2km/h 5mph /  8km/h 66.1% 0in /  0.0mm
07:39 59.4 °F /  15.2 °C 49.5 °F /  9.7 °C 29.8in /  1008.8hPa Este 1.9mph /  3.1km/h 5mph /  8km/h 69.9% 0in /  0.0mm
07:44 59.4 °F /  15.2 °C 49.5 °F /  9.7 °C 29.8in /  1008.8hPa Este 1.8mph /  2.9km/h 5mph /  8km/h 69.8% 0in /  0.0mm
07:49 59.2 °F /  15.1 °C 48.2 °F /  9 °C 29.8in /  1008.9hPa Este 1.1mph /  1.8km/h 3.6mph /  5.8km/h 67.1% 0in /  0.0mm
07:54 59.4 °F /  15.2 °C 47.8 °F /  8.8 °C 29.8in /  1008.9hPa Calm   4mph /  6.4km/h 65.6% 0in /  0.0mm
07:59 59.5 °F /  15.3 °C 47.1 °F /  8.4 °C 29.8in /  1008.9hPa SO 0.9mph /  1.5km/h 5mph /  8km/h 63.5% 0in /  0.0mm
08:04 59.7 °F /  15.4 °C 47.3 °F /  8.5 °C 29.8in /  1009.0hPa SO 2.4mph /  3.9km/h 5mph /  8km/h 63.4% 0in /  0.0mm
08:09 59.9 °F /  15.5 °C 48.6 °F /  9.2 °C 29.8in /  1009.0hPa SO 2.6mph /  4.2km/h 5mph /  8km/h 66.2% 0in /  0.0mm
08:14 60.1 °F /  15.6 °C 49.1 °F /  9.5 °C 29.8in /  1009.0hPa SO 2.9mph /  4.7km/h 5mph /  8km/h 67% 0in /  0.0mm
08:19 60.3 °F /  15.7 °C 49.3 °F /  9.6 °C 29.8in /  1009.1hPa SO 2.5mph /  4.1km/h 5mph /  8km/h 67% 0in /  0.0mm
08:24 60.4 °F /  15.8 °C 49.3 °F /  9.6 °C 29.8in /  1009.1hPa Sur 2mph /  3.2km/h 5.4mph /  8.7km/h 66.6% 0in /  0.0mm
08:29 60.4 °F /  15.8 °C 47.7 °F /  8.7 °C 29.8in /  1009.1hPa Sur 2.6mph /  4.2km/h 6.9mph /  11.1km/h 62.4% 0in /  0.0mm
08:34 60.8 °F /  16 °C 46.2 °F /  7.9 °C 29.8in /  1009.1hPa Sur 3.6mph /  5.8km/h 8.1mph /  13km/h 58.6% 0in /  0.0mm
08:39 61.2 °F /  16.2 °C 43 °F /  6.1 °C 29.8in /  1009.1hPa SO 4mph /  6.4km/h 9.7mph /  15.6km/h 51.3% 0in /  0.0mm
08:44 61.7 °F /  16.5 °C 42.6 °F /  5.9 °C 29.8in /  1009.1hPa SO 4.7mph /  7.6km/h 10mph /  16.1km/h 49.6% 0in /  0.0mm
08:49 62.1 °F /  16.7 °C 42.6 °F /  5.9 °C 29.8in /  1009.2hPa SO 4.7mph /  7.6km/h 9mph /  14.5km/h 49% 0in /  0.0mm
08:54 62.2 °F /  16.8 °C 42.8 °F /  6 °C 29.8in /  1009.2hPa SO 4.7mph /  7.6km/h 7.4mph /  11.9km/h 48.9% 0in /  0.0mm
08:59 62.4 °F /  16.9 °C 42.3 °F /  5.7 °C 29.8in /  1009.2hPa OSO 4.3mph /  6.9km/h 7mph /  11.3km/h 47.8% 0in /  0.0mm
09:04 62.8 °F /  17.1 °C 41.5 °F /  5.3 °C 29.8in /  1009.3hPa OSO 3.6mph /  5.8km/h 6.4mph /  10.3km/h 45.8% 0in /  0.0mm
09:09 62.8 °F /  17.1 °C 40.8 °F /  4.9 °C 29.8in /  1009.3hPa OSO 3.7mph /  6km/h 7mph /  11.3km/h 44.5% 0in /  0.0mm
09:14 63.1 °F /  17.3 °C 40.6 °F /  4.8 °C 29.8in /  1009.3hPa OSO 4mph /  6.5km/h 8.5mph /  13.7km/h 43.7% 0in /  0.0mm
09:19 63.5 °F /  17.5 °C 39.4 °F /  4.1 °C 29.8in /  1009.4hPa OSO 4.3mph /  6.9km/h 11.8mph /  19km/h 41.2% 0in /  0.0mm
09:24 63.9 °F /  17.7 °C 38.8 °F /  3.8 °C 29.8in /  1009.4hPa OSO 4.7mph /  7.6km/h 12mph /  19.3km/h 39.6% 0in /  0.0mm
09:29 64.2 °F /  17.9 °C 39.4 °F /  4.1 °C 29.8in /  1009.4hPa OSO 5mph /  8km/h 10mph /  16.1km/h 40% 0in /  0.0mm
09:34 64.6 °F /  18.1 °C 42.1 °F /  5.6 °C 29.8in /  1009.5hPa SSO 5.4mph /  8.7km/h 7.4mph /  11.9km/h 44.1% 0in /  0.0mm
09:39 64.4 °F /  18 °C 42.6 °F /  5.9 °C 29.8in /  1009.5hPa Sur 5mph /  8km/h 7mph /  11.3km/h 45% 0in /  0.0mm
09:44 64.6 °F /  18.1 °C 42.1 °F /  5.6 °C 29.8in /  1009.5hPa Sur 4.3mph /  6.9km/h 7mph /  11.3km/h 44% 0in /  0.0mm
09:49 64.8 °F /  18.2 °C 39.4 °F /  4.1 °C 29.8in /  1009.6hPa ONO 3.9mph /  6.2km/h 9.2mph /  14.8km/h 39.1% 0in /  0.0mm
09:54 65.3 °F /  18.5 °C 37.9 °F /  3.3 °C 29.8in /  1009.6hPa Oeste 3.1mph /  5km/h 10.4mph /  16.7km/h 36.4% 0in /  0.0mm
09:59 65.7 °F /  18.7 °C 38.7 °F /  3.7 °C 29.8in /  1009.6hPa SO 3.7mph /  6km/h 10mph /  16.1km/h 37.2% 0in /  0.0mm
10:04 65.8 °F /  18.8 °C 39.9 °F /  4.4 °C 29.8in /  1009.6hPa SSE 4.7mph /  7.6km/h 9mph /  14.5km/h 38.6% 0in /  0.0mm
10:09 66 °F /  18.9 °C 39 °F /  3.9 °C 29.8in /  1009.5hPa Sur 4.9mph /  7.9km/h 9.7mph /  15.6km/h 37.1% 0in /  0.0mm
10:14 66 °F /  18.9 °C 39.6 °F /  4.2 °C 29.8in /  1009.5hPa SSO 5.2mph /  8.4km/h 10mph /  16.1km/h 37.8% 0in /  0.0mm
10:19 66.6 °F /  19.2 °C 40.6 °F /  4.8 °C 29.8in /  1009.5hPa SSE 4.8mph /  7.8km/h 8mph /  12.9km/h 38.9% 0in /  0.0mm
10:24 66.7 °F /  19.3 °C 40.3 °F /  4.6 °C 29.8in /  1009.5hPa SSO 4.3mph /  6.9km/h 7.4mph /  11.9km/h 37.9% 0in /  0.0mm
10:29 66.9 °F /  19.4 °C 40.6 °F /  4.8 °C 29.8in /  1009.5hPa SO 4.2mph /  6.8km/h 7mph /  11.3km/h 38.1% 0in /  0.0mm
10:34 67.3 °F /  19.6 °C 37.9 °F /  3.3 °C 29.8in /  1009.5hPa Oeste 4mph /  6.5km/h 12.7mph /  20.4km/h 34.1% 0in /  0.0mm
10:39 67.6 °F /  19.8 °C 36.7 °F /  2.6 °C 29.8in /  1009.4hPa SO 4.8mph /  7.8km/h 13mph /  20.9km/h 32% 0in /  0.0mm
10:44 68.2 °F /  20.1 °C 37 °F /  2.8 °C 29.8in /  1009.4hPa OSO 6.2mph /  10km/h 12mph /  19.3km/h 32% 0in /  0.0mm
10:49 68.7 °F /  20.4 °C 37.6 °F /  3.1 °C 29.8in /  1009.4hPa SO 5.7mph /  9.1km/h 8.1mph /  13km/h 32% 0in /  0.0mm
10:54 69.1 °F /  20.6 °C 37.2 °F /  2.9 °C 29.8in /  1009.4hPa SSO 4.7mph /  7.6km/h 8.5mph /  13.7km/h 31.1% 0in /  0.0mm
10:59 69.3 °F /  20.7 °C 37 °F /  2.8 °C 29.8in /  1009.4hPa SO 4.9mph /  7.9km/h 10.4mph /  16.7km/h 30.7% 0in /  0.0mm
11:04 69.4 °F /  20.8 °C 36.7 °F /  2.6 °C 29.8in /  1009.4hPa Oeste 5.2mph /  8.4km/h 11.8mph /  19km/h 30% 0in /  0.0mm
11:09 69.3 °F /  20.7 °C 36.7 °F /  2.6 °C 29.8in /  1009.3hPa Oeste 5.6mph /  9km/h 12mph /  19.3km/h 30.2% 0in /  0.0mm
11:14 69.3 °F /  20.7 °C 36.7 °F /  2.6 °C 29.8in /  1009.3hPa Oeste 6.2mph /  10km/h 9.7mph /  15.6km/h 30.2% 0in /  0.0mm
11:19 69.4 °F /  20.8 °C 36.9 °F /  2.7 °C 29.8in /  1009.3hPa OSO 5.8mph /  9.4km/h 10.4mph /  16.7km/h 30.1% 0in /  0.0mm
11:24 69.6 °F /  20.9 °C 36.7 °F /  2.6 °C 29.8in /  1009.2hPa SO 5.2mph /  8.4km/h 11.5mph /  18.5km/h 29.9% 0in /  0.0mm
11:29 70 °F /  21.1 °C 37 °F /  2.8 °C 29.8in /  1009.2hPa Oeste 5.2mph /  8.4km/h 12mph /  19.3km/h 29.9% 0in /  0.0mm
11:34 70.3 °F /  21.3 °C 36.9 °F /  2.7 °C 29.8in /  1009.2hPa ONO 5.2mph /  8.4km/h 8.1mph /  13km/h 29.4% 0in /  0.0mm
11:39 70.5 °F /  21.4 °C 36.9 °F /  2.7 °C 29.8in /  1009.2hPa ONO 4.8mph /  7.8km/h 8.1mph /  13km/h 29.3% 0in /  0.0mm
11:44 70.9 °F /  21.6 °C 36.3 °F /  2.4 °C 29.8in /  1009.2hPa Oeste 4.3mph /  6.9km/h 10.4mph /  16.7km/h 28.3% 0in /  0.0mm
11:49 70.9 °F /  21.6 °C 36.1 °F /  2.3 °C 29.8in /  1009.2hPa ONO 4.3mph /  6.9km/h 12.7mph /  20.4km/h 28% 0in /  0.0mm
11:54 71.1 °F /  21.7 °C 36.3 °F /  2.4 °C 29.8in /  1009.1hPa Oeste 4.3mph /  6.9km/h 13mph /  20.9km/h 28% 0in /  0.0mm
11:59 71.2 °F /  21.8 °C 36.1 °F /  2.3 °C 29.8in /  1009.1hPa SSO 4.7mph /  7.5km/h 12mph /  19.3km/h 27.6% 0in /  0.0mm
12:04 71.4 °F /  21.9 °C 36 °F /  2.2 °C 29.8in /  1009.1hPa SSO 5.2mph /  8.4km/h 9.2mph /  14.8km/h 27.3% 0in /  0.0mm
12:09 71.4 °F /  21.9 °C 36.3 °F /  2.4 °C 29.8in /  1008.9hPa Oeste 5mph /  8.1km/h 9mph /  14.5km/h 27.6% 0in /  0.0mm
12:14 71.8 °F /  22.1 °C 36 °F /  2.2 °C 29.8in /  1008.9hPa SO 4.7mph /  7.6km/h 12.7mph /  20.4km/h 27% 0in /  0.0mm
12:19 72 °F /  22.2 °C 35.6 °F /  2 °C 29.8in /  1008.9hPa OSO 5.2mph /  8.3km/h 13mph /  20.9km/h 26.6% 0in /  0.0mm
12:24 71.8 °F /  22.1 °C 35.8 °F /  2.1 °C 29.8in /  1008.9hPa OSO 5.9mph /  9.5km/h 13mph /  20.9km/h 26.7% 0in /  0.0mm
12:29 72 °F /  22.2 °C 35.6 °F /  2 °C 29.8in /  1008.9hPa NNO 5.7mph /  9.2km/h 14.7mph /  23.7km/h 26.3% 0in /  0.0mm
12:34 72.1 °F /  22.3 °C 35.1 °F /  1.7 °C 29.8in /  1008.9hPa NO 5.4mph /  8.7km/h 15mph /  24.1km/h 25.7% 0in /  0.0mm
12:39 72.1 °F /  22.3 °C 35.4 °F /  1.9 °C 29.8in /  1008.8hPa ONO 5.7mph /  9.2km/h 15mph /  24.1km/h 26% 0in /  0.0mm
12:44 72.5 °F /  22.5 °C 36.5 °F /  2.5 °C 29.8in /  1008.8hPa NNO 6.2mph /  10km/h 10mph /  16.1km/h 26.9% 0in /  0.0mm
12:49 73 °F /  22.8 °C 36 °F /  2.2 °C 29.8in /  1008.8hPa NNE 5.5mph /  8.9km/h 9.2mph /  14.8km/h 25.8% 0in /  0.0mm
12:54 73.2 °F /  22.9 °C 36.3 °F /  2.4 °C 29.8in /  1008.6hPa NO 4.3mph /  6.9km/h 14.7mph /  23.7km/h 26% 0in /  0.0mm
12:59 73 °F /  22.8 °C 35.6 °F /  2 °C 29.8in /  1008.6hPa ONO 5mph /  8km/h 15mph /  24.1km/h 25.4% 0in /  0.0mm
13:04 73.4 °F /  23 °C 36.1 °F /  2.3 °C 29.8in /  1008.6hPa NNO 5.9mph /  9.5km/h 13mph /  20.9km/h 25.8% 0in /  0.0mm
13:09 73.6 °F /  23.1 °C 35.6 °F /  2 °C 29.8in /  1008.5hPa NNE 5.3mph /  8.5km/h 12mph /  19.3km/h 25.1% 0in /  0.0mm
13:14 73.6 °F /  23.1 °C 35.8 °F /  2.1 °C 29.8in /  1008.5hPa SE 4.3mph /  6.9km/h 6.9mph /  11.1km/h 25.1% 0in /  0.0mm
13:19 73.8 °F /  23.2 °C 35.8 °F /  2.1 °C 29.8in /  1008.5hPa SSO 4.2mph /  6.8km/h 9.2mph /  14.8km/h 25.1% 0in /  0.0mm
13:24 74.5 °F /  23.6 °C 35.8 °F /  2.1 °C 29.8in /  1008.4hPa Oeste 4mph /  6.5km/h 14mph /  22.5km/h 24.4% 0in /  0.0mm
13:29 74.5 °F /  23.6 °C 34.5 °F /  1.4 °C 29.8in /  1008.4hPa OSO 4.8mph /  7.8km/h 14mph /  22.5km/h 23.2% 0in /  0.0mm
13:34 74.1 °F /  23.4 °C 34.2 °F /  1.2 °C 29.8in /  1008.4hPa Oeste 6.2mph /  10km/h 12.7mph /  20.4km/h 23.2% 0in /  0.0mm
13:39 74.1 °F /  23.4 °C 34.7 °F /  1.5 °C 29.8in /  1008.3hPa SSO 5.7mph /  9.1km/h 13.8mph /  22.2km/h 23.8% 0in /  0.0mm
13:44 74.5 °F /  23.6 °C 34.3 °F /  1.3 °C 29.8in /  1008.3hPa SO 4.7mph /  7.6km/h 15.2mph /  24.5km/h 23.1% 0in /  0.0mm
13:49 74.5 °F /  23.6 °C 34.2 °F /  1.2 °C 29.8in /  1008.3hPa Oeste 6.2mph /  9.9km/h 15.9mph /  25.6km/h 23% 0in /  0.0mm
13:54 74.7 °F /  23.7 °C 34.5 °F /  1.4 °C 29.8in /  1008.3hPa SO 8.5mph /  13.7km/h 16mph /  25.7km/h 23.1% 0in /  0.0mm
13:59 74.8 °F /  23.8 °C 34.7 °F /  1.5 °C 29.8in /  1008.3hPa Sur 7.4mph /  11.9km/h 15mph /  24.1km/h 23.1% 0in /  0.0mm
14:04 75.4 °F /  24.1 °C 35.1 °F /  1.7 °C 29.8in /  1008.3hPa Oeste 5.9mph /  9.5km/h 11.5mph /  18.5km/h 23% 0in /  0.0mm
14:09 75.6 °F /  24.2 °C 35.1 °F /  1.7 °C 29.8in /  1008.0hPa OSO 5.5mph /  8.8km/h 12mph /  19.3km/h 23% 0in /  0.0mm
14:14 75.7 °F /  24.3 °C 35.2 °F /  1.8 °C 29.8in /  1008.0hPa Oeste 4.7mph /  7.6km/h 9.2mph /  14.8km/h 23% 0in /  0.0mm
14:19 75.7 °F /  24.3 °C 34.7 °F /  1.5 °C 29.8in /  1008.0hPa Oeste 5.3mph /  8.6km/h 18.4mph /  29.6km/h 22.4% 0in /  0.0mm
14:24 75.6 °F /  24.2 °C 33.6 °F /  0.9 °C 29.8in /  1008.0hPa SO 6.4mph /  10.3km/h 19mph /  30.6km/h 21.8% 0in /  0.0mm
14:29 75.6 °F /  24.2 °C 32.9 °F /  0.5 °C 29.8in /  1008.0hPa OSO 7.8mph /  12.6km/h 19mph /  30.6km/h 21.1% 0in /  0.0mm
14:34 75.7 °F /  24.3 °C 34 °F /  1.1 °C 29.8in /  1008.0hPa Oeste 10mph /  16.1km/h 19mph /  30.6km/h 21.8% 0in /  0.0mm
14:39 76.5 °F /  24.7 °C 34 °F /  1.1 °C 29.8in /  1007.8hPa NO 8.6mph /  13.8km/h 14mph /  22.5km/h 21.3% 0in /  0.0mm
14:44 76.6 °F /  24.8 °C 32.7 °F /  0.4 °C 29.8in /  1007.8hPa ONO 6.2mph /  10km/h 14mph /  22.5km/h 20.3% 0in /  0.0mm
14:49 76.5 °F /  24.7 °C 33.3 °F /  0.7 °C 29.8in /  1007.8hPa NO 6.1mph /  9.8km/h 16.1mph /  25.9km/h 20.7% 0in /  0.0mm
14:54 76.5 °F /  24.7 °C 33.6 °F /  0.9 °C 29.8in /  1007.8hPa NNO 5.9mph /  9.5km/h 16mph /  25.7km/h 21% 0in /  0.0mm
14:59 75.9 °F /  24.4 °C 33.1 °F /  0.6 °C 29.8in /  1007.8hPa North 6.6mph /  10.7km/h 15mph /  24.1km/h 21% 0in /  0.0mm
15:04 75.9 °F /  24.4 °C 33.4 °F /  0.8 °C 29.8in /  1007.8hPa NNE 7.6mph /  12.2km/h 12mph /  19.3km/h 21.2% 0in /  0.0mm
15:09 76.3 °F /  24.6 °C 33.4 °F /  0.8 °C 29.8in /  1007.6hPa NNO 7mph /  11.2km/h 11.5mph /  18.5km/h 21% 0in /  0.0mm
15:14 76.6 °F /  24.8 °C 33.1 °F /  0.6 °C 29.8in /  1007.6hPa NNO 5.9mph /  9.5km/h 17mph /  27.4km/h 20.4% 0in /  0.0mm
15:19 76.8 °F /  24.9 °C 32.7 °F /  0.4 °C 29.8in /  1007.6hPa ONO 6.8mph /  11km/h 17.5mph /  28.2km/h 20% 0in /  0.0mm
15:24 77.4 °F /  25.2 °C 32.9 °F /  0.5 °C 29.8in /  1007.5hPa ONO 8.5mph /  13.7km/h 17mph /  27.4km/h 19.9% 0in /  0.0mm
15:29 77 °F /  25 °C 32.5 °F /  0.3 °C 29.8in /  1007.5hPa Oeste 7.9mph /  12.7km/h 13mph /  20.9km/h 19.8% 0in /  0.0mm
15:34 77 °F /  25 °C 32.7 °F /  0.4 °C 29.8in /  1007.5hPa ONO 6.9mph /  11.1km/h 15.9mph /  25.6km/h 20% 0in /  0.0mm
15:39 76.6 °F /  24.8 °C 32.5 °F /  0.3 °C 29.8in /  1007.5hPa ONO 6.9mph /  11.1km/h 16.1mph /  25.9km/h 20% 0in /  0.0mm
15:44 76.5 °F /  24.7 °C 32.4 °F /  0.2 °C 29.8in /  1007.5hPa Oeste 6.9mph /  11.1km/h 14mph /  22.5km/h 20% 0in /  0.0mm
15:49 76.3 °F /  24.6 °C 32.5 °F /  0.3 °C 29.8in /  1007.5hPa Oeste 6.3mph /  10.2km/h 13mph /  20.9km/h 20.2% 0in /  0.0mm
15:54 76.6 °F /  24.8 °C 33.6 °F /  0.9 °C 29.7in /  1007.3hPa NO 5.4mph /  8.7km/h 13mph /  20.9km/h 21% 0in /  0.0mm
15:59 76.6 °F /  24.8 °C 33.8 °F /  1 °C 29.7in /  1007.3hPa NO 5.6mph /  9km/h 13mph /  20.9km/h 21% 0in /  0.0mm
16:04 76.8 °F /  24.9 °C 36 °F /  2.2 °C 29.8in /  1007.4hPa North 5.9mph /  9.5km/h 10mph /  16.1km/h 23% 0in /  0.0mm
16:09 76.3 °F /  24.6 °C 41.4 °F /  5.2 °C 29.8in /  1007.4hPa ESE 5.3mph /  8.5km/h 9.2mph /  14.8km/h 28.8% 0in /  0.0mm
16:14 75.4 °F /  24.1 °C 41.5 °F /  5.3 °C 29.8in /  1007.4hPa SE 4.3mph /  6.9km/h 9.7mph /  15.6km/h 29.6% 0in /  0.0mm
16:19 74.8 °F /  23.8 °C 40.5 °F /  4.7 °C 29.8in /  1007.4hPa SE 5mph /  8.1km/h 10mph /  16.1km/h 29% 0in /  0.0mm
16:24 75.2 °F /  24 °C 40.8 °F /  4.9 °C 29.7in /  1007.2hPa SSE 6.2mph /  10km/h 9.7mph /  15.6km/h 29% 0in /  0.0mm
16:29 75.4 °F /  24.1 °C 40.6 °F /  4.8 °C 29.7in /  1007.2hPa SE 5.7mph /  9.1km/h 10mph /  16.1km/h 28.7% 0in /  0.0mm
16:34 75.7 °F /  24.3 °C 39.9 °F /  4.4 °C 29.7in /  1007.2hPa SO 4.7mph /  7.6km/h 10.7mph /  17.2km/h 27.5% 0in /  0.0mm
16:39 76.5 °F /  24.7 °C 39.2 °F /  4 °C 29.7in /  1007.1hPa SSE 5mph /  8km/h 11.8mph /  19km/h 26.2% 0in /  0.0mm
16:44 76.3 °F /  24.6 °C 42.3 °F /  5.7 °C 29.7in /  1007.1hPa ESE 5.4mph /  8.7km/h 15mph /  24.1km/h 29.8% 0in /  0.0mm
16:49 76.3 °F /  24.6 °C 43.3 °F /  6.3 °C 29.7in /  1007.1hPa SE 5.3mph /  8.6km/h 15mph /  24.1km/h 31% 0in /  0.0mm
16:54 76.5 °F /  24.7 °C 43.2 °F /  6.2 °C 29.7in /  1007.1hPa SE 5.2mph /  8.4km/h 11.5mph /  18.5km/h 30.6% 0in /  0.0mm
16:59 76.3 °F /  24.6 °C 41.7 °F /  5.4 °C 29.7in /  1007.1hPa SSE 5.6mph /  9km/h 12mph /  19.3km/h 29.1% 0in /  0.0mm
17:04 76.1 °F /  24.5 °C 41.9 °F /  5.5 °C 29.7in /  1007.1hPa Sur 6.2mph /  10km/h 12.3mph /  19.8km/h 29.6% 0in /  0.0mm
17:09 76.3 °F /  24.6 °C 41.7 °F /  5.4 °C 29.7in /  1007.0hPa OSO 5.9mph /  9.5km/h 13mph /  20.9km/h 29.1% 0in /  0.0mm
17:14 76.1 °F /  24.5 °C 41.5 °F /  5.3 °C 29.7in /  1007.0hPa Sur 5.4mph /  8.7km/h 10.7mph /  17.2km/h 29% 0in /  0.0mm
17:19 76.3 °F /  24.6 °C 41.7 °F /  5.4 °C 29.7in /  1007.0hPa Sur 5.6mph /  9km/h 14mph /  22.5km/h 29% 0in /  0.0mm
17:24 76.5 °F /  24.7 °C 41.7 °F /  5.4 °C 29.7in /  1006.9hPa SSO 5.9mph /  9.5km/h 14mph /  22.5km/h 29% 0in /  0.0mm
17:29 76.1 °F /  24.5 °C 41.5 °F /  5.3 °C 29.7in /  1006.9hPa Sur 6.3mph /  10.1km/h 12.7mph /  20.4km/h 29.1% 0in /  0.0mm
17:34 75.7 °F /  24.3 °C 42.3 °F /  5.7 °C 29.7in /  1007.0hPa SSE 6.9mph /  11.1km/h 13.8mph /  22.2km/h 30.1% 0in /  0.0mm
17:39 75.6 °F /  24.2 °C 42.8 °F /  6 °C 29.7in /  1007.0hPa SE 7.1mph /  11.4km/h 14mph /  22.5km/h 30.9% 0in /  0.0mm
17:44 75.6 °F /  24.2 °C 43.5 °F /  6.4 °C 29.7in /  1007.0hPa ESE 7.4mph /  11.9km/h 16.1mph /  25.9km/h 31.9% 0in /  0.0mm
17:49 75 °F /  23.9 °C 44.4 °F /  6.9 °C 29.7in /  1007.1hPa ESE 7.9mph /  12.7km/h 19.7mph /  31.7km/h 33.6% 0in /  0.0mm
17:54 74.5 °F /  23.6 °C 45.9 °F /  7.7 °C 29.7in /  1007.1hPa ESE 8.7mph /  14km/h 21.5mph /  34.6km/h 36% 0in /  0.0mm
17:59 73.9 °F /  23.3 °C 46.8 °F /  8.2 °C 29.7in /  1007.1hPa ESE 9.8mph /  15.8km/h 22mph /  35.4km/h 38% 0in /  0.0mm
18:04 73.4 °F /  23 °C 47.1 °F /  8.4 °C 29.7in /  1007.1hPa ESE 11.4mph /  18.4km/h 21.9mph /  35.2km/h 39.3% 0in /  0.0mm
18:09 73 °F /  22.8 °C 47.3 °F /  8.5 °C 29.7in /  1007.1hPa SE 11.8mph /  19km/h 22mph /  35.4km/h 40% 0in /  0.0mm
18:14 73 °F /  22.8 °C 47.7 °F /  8.7 °C 29.7in /  1007.1hPa ESE 12.5mph /  20.1km/h 20mph /  32.2km/h 40.7% 0in /  0.0mm
18:19 72.9 °F /  22.7 °C 48 °F /  8.9 °C 29.8in /  1007.4hPa ESE 11.3mph /  18.2km/h 16.8mph /  27km/h 41.2% 0in /  0.0mm
18:24 72.7 °F /  22.6 °C 48.4 °F /  9.1 °C 29.8in /  1007.4hPa ESE 9.2mph /  14.8km/h 18.4mph /  29.6km/h 42.3% 0in /  0.0mm
18:29 72.7 °F /  22.6 °C 48.9 °F /  9.4 °C 29.8in /  1007.4hPa ESE 10.2mph /  16.4km/h 19mph /  30.6km/h 43% 0in /  0.0mm
18:34 72.7 °F /  22.6 °C 49.6 °F /  9.8 °C 29.8in /  1007.5hPa ESE 11.8mph /  19km/h 19mph /  30.6km/h 44.2% 0in /  0.0mm
18:39 72.9 °F /  22.7 °C 50.2 °F /  10.1 °C 29.8in /  1007.5hPa ESE 11.6mph /  18.6km/h 20.8mph /  33.5km/h 45% 0in /  0.0mm
18:44 72.7 °F /  22.6 °C 50.2 °F /  10.1 °C 29.8in /  1007.5hPa SE 11.2mph /  18km/h 21mph /  33.8km/h 45.4% 0in /  0.0mm
18:49 72.5 °F /  22.5 °C 50.5 °F /  10.3 °C 29.8in /  1007.5hPa ESE 11.6mph /  18.7km/h 20.8mph /  33.5km/h 46% 0in /  0.0mm
18:54 72.9 °F /  22.7 °C 50.2 °F /  10.1 °C 29.8in /  1007.4hPa ESE 12.3mph /  19.8km/h 21mph /  33.8km/h 45% 0in /  0.0mm
18:59 73 °F /  22.8 °C 50.5 °F /  10.3 °C 29.8in /  1007.4hPa SE 11.4mph /  18.4km/h 17.3mph /  27.8km/h 45.3% 0in /  0.0mm
19:04 72.9 °F /  22.7 °C 50 °F /  10 °C 29.8in /  1007.4hPa SE 10.2mph /  16.4km/h 17mph /  27.4km/h 44.3% 0in /  0.0mm
19:09 73 °F /  22.8 °C 49.1 °F /  9.5 °C 29.7in /  1007.3hPa SE 10.1mph /  16.3km/h 16.1mph /  25.9km/h 42.7% 0in /  0.0mm
19:14 73.4 °F /  23 °C 48.6 °F /  9.2 °C 29.7in /  1007.3hPa SE 10mph /  16.1km/h 16mph /  25.7km/h 41.5% 0in /  0.0mm
19:19 73.8 °F /  23.2 °C 47.3 °F /  8.5 °C 29.8in /  1007.5hPa SE 9.3mph /  14.9km/h 17.5mph /  28.2km/h 39% 0in /  0.0mm
19:24 73.8 °F /  23.2 °C 46.8 °F /  8.2 °C 29.8in /  1007.5hPa SSE 8.1mph /  13km/h 17.5mph /  28.2km/h 38.3% 0in /  0.0mm
19:29 73.8 °F /  23.2 °C 45.1 °F /  7.3 °C 29.8in /  1007.5hPa SSE 8.3mph /  13.4km/h 18.4mph /  29.6km/h 36.2% 0in /  0.0mm
19:34 73.6 °F /  23.1 °C 44.6 °F /  7 °C 29.8in /  1007.7hPa SSE 8.7mph /  14km/h 18mph /  29km/h 35.4% 0in /  0.0mm
19:39 73.4 °F /  23 °C 44.4 °F /  6.9 °C 29.8in /  1007.7hPa SSE 9.1mph /  14.6km/h 17mph /  27.4km/h 35.4% 0in /  0.0mm
19:44 73.6 °F /  23.1 °C 44.2 °F /  6.8 °C 29.8in /  1007.7hPa SE 9.7mph /  15.6km/h 15mph /  24.1km/h 35% 0in /  0.0mm
19:49 73.8 °F /  23.2 °C 44.4 °F /  6.9 °C 29.8in /  1007.7hPa SSE 8.8mph /  14.2km/h 15mph /  24.1km/h 35% 0in /  0.0mm
19:54 73.6 °F /  23.1 °C 44.2 °F /  6.8 °C 29.8in /  1007.7hPa SE 7.4mph /  11.9km/h 15mph /  24.1km/h 35% 0in /  0.0mm
19:59 73.4 °F /  23 °C 44.2 °F /  6.8 °C 29.8in /  1007.7hPa SSE 7.4mph /  11.9km/h 12mph /  19.3km/h 35.2% 0in /  0.0mm
20:04 73.2 °F /  22.9 °C 44.4 °F /  6.9 °C 29.8in /  1007.9hPa SSE 7.4mph /  11.9km/h 12mph /  19.3km/h 35.6% 0in /  0.0mm
20:09 73 °F /  22.8 °C 43.9 °F /  6.6 °C 29.8in /  1007.9hPa SSE 7.5mph /  12km/h 13.8mph /  22.2km/h 35.1% 0in /  0.0mm
20:14 72.9 °F /  22.7 °C 43.7 °F /  6.5 °C 29.8in /  1007.9hPa SE 7.6mph /  12.2km/h 15.2mph /  24.5km/h 35% 0in /  0.0mm
20:19 72.5 °F /  22.5 °C 43.3 °F /  6.3 °C 29.8in /  1008.0hPa SE 7.6mph /  12.2km/h 15mph /  24.1km/h 35% 0in /  0.0mm
20:24 72.1 °F /  22.3 °C 43 °F /  6.1 °C 29.8in /  1008.0hPa SE 7.6mph /  12.2km/h 15mph /  24.1km/h 35% 0in /  0.0mm
20:29 72.1 °F /  22.3 °C 42.4 °F /  5.8 °C 29.8in /  1008.0hPa SE 7.8mph /  12.5km/h 13mph /  20.9km/h 34.3% 0in /  0.0mm
20:34 72 °F /  22.2 °C 41.9 °F /  5.5 °C 29.8in /  1008.3hPa SE 8.1mph /  13km/h 13mph /  20.9km/h 34% 0in /  0.0mm
20:39 72 °F /  22.2 °C 41.9 °F /  5.5 °C 29.8in /  1008.3hPa SE 7.5mph /  12km/h 12mph /  19.3km/h 34% 0in /  0.0mm
20:44 71.8 °F /  22.1 °C 41.9 °F /  5.5 °C 29.8in /  1008.3hPa SSE 6.4mph /  10.3km/h 12mph /  19.3km/h 34% 0in /  0.0mm
20:49 71.2 °F /  21.8 °C 41.4 °F /  5.2 °C 29.8in /  1008.4hPa SSE 6.6mph /  10.6km/h 13.8mph /  22.2km/h 33.9% 0in /  0.0mm
20:54 71.1 °F /  21.7 °C 41.4 °F /  5.2 °C 29.8in /  1008.4hPa SSE 6.9mph /  11.1km/h 14mph /  22.5km/h 34% 0in /  0.0mm
20:59 70.9 °F /  21.6 °C 41.2 °F /  5.1 °C 29.8in /  1008.4hPa SSE 6.9mph /  11.1km/h 11.5mph /  18.5km/h 34% 0in /  0.0mm
21:04 70.9 °F /  21.6 °C 41 °F /  5 °C 29.8in /  1008.5hPa SE 6.9mph /  11.1km/h 12mph /  19.3km/h 34% 0in /  0.0mm
21:09 70.7 °F /  21.5 °C 41.4 °F /  5.2 °C 29.8in /  1008.5hPa ESE 6.3mph /  10.1km/h 10mph /  16.1km/h 34.5% 0in /  0.0mm
21:14 70.3 °F /  21.3 °C 40.8 °F /  4.9 °C 29.8in /  1008.5hPa SE 5.4mph /  8.7km/h 8mph /  12.9km/h 34.1% 0in /  0.0mm
21:19 70.2 °F /  21.2 °C 40.6 °F /  4.8 °C 29.8in /  1008.7hPa ESE 5mph /  8km/h 8.1mph /  13km/h 34.3% 0in /  0.0mm
21:24 70 °F /  21.1 °C 41 °F /  5 °C 29.8in /  1008.7hPa ESE 4.3mph /  6.9km/h 8mph /  12.9km/h 35% 0in /  0.0mm
21:29 69.8 °F /  21 °C 40.8 °F /  4.9 °C 29.8in /  1008.7hPa ESE 4.2mph /  6.8km/h 6.2mph /  10km/h 35% 0in /  0.0mm
21:34 69.6 °F /  20.9 °C 40.6 °F /  4.8 °C 29.8in /  1008.7hPa SE 4mph /  6.5km/h 6mph /  9.7km/h 35% 0in /  0.0mm
21:39 69.4 °F /  20.8 °C 40.6 °F /  4.8 °C 29.8in /  1008.7hPa SE 3.7mph /  5.9km/h 6mph /  9.7km/h 35% 0in /  0.0mm
21:44 69.4 °F /  20.8 °C 39.9 °F /  4.4 °C 29.8in /  1008.7hPa SE 3.1mph /  5km/h 8.1mph /  13km/h 34.2% 0in /  0.0mm
21:49 69.4 °F /  20.8 °C 39.7 °F /  4.3 °C 29.8in /  1009.0hPa SE 3.4mph /  5.5km/h 8.1mph /  13km/h 34% 0in /  0.0mm
21:54 69.4 °F /  20.8 °C 39.7 °F /  4.3 °C 29.8in /  1009.0hPa SE 4mph /  6.5km/h 7.4mph /  11.9km/h 34% 0in /  0.0mm
21:59 69.1 °F /  20.6 °C 39.6 °F /  4.2 °C 29.8in /  1009.0hPa SE 4mph /  6.5km/h 7mph /  11.3km/h 34.1% 0in /  0.0mm
22:04 68.9 °F /  20.5 °C 39.4 °F /  4.1 °C 29.8in /  1009.2hPa SE 4mph /  6.5km/h 6.9mph /  11.1km/h 34% 0in /  0.0mm
22:09 68.5 °F /  20.3 °C 39 °F /  3.9 °C 29.8in /  1009.2hPa ESE 4mph /  6.5km/h 7mph /  11.3km/h 34% 0in /  0.0mm
22:14 68.5 °F /  20.3 °C 39 °F /  3.9 °C 29.8in /  1009.2hPa SE 4mph /  6.5km/h 6mph /  9.7km/h 34% 0in /  0.0mm
22:19 68.5 °F /  20.3 °C 38.5 °F /  3.6 °C 29.8in /  1009.4hPa SE 3.6mph /  5.8km/h 6.2mph /  10km/h 33.1% 0in /  0.0mm
22:24 68.7 °F /  20.4 °C 37.9 °F /  3.3 °C 29.8in /  1009.4hPa SSE 2.9mph /  4.7km/h 6mph /  9.7km/h 32.5% 0in /  0.0mm
22:29 68.7 °F /  20.4 °C 37.6 °F /  3.1 °C 29.8in /  1009.4hPa SSE 2.9mph /  4.7km/h 5mph /  8km/h 31.8% 0in /  0.0mm
22:34 68.9 °F /  20.5 °C 37.6 °F /  3.1 °C 29.8in /  1009.6hPa SSE 2.9mph /  4.7km/h 5mph /  8km/h 31.7% 0in /  0.0mm
22:39 68.9 °F /  20.5 °C 37.2 °F /  2.9 °C 29.8in /  1009.6hPa SSE 2.5mph /  4km/h 3.6mph /  5.8km/h 31.2% 0in /  0.0mm
22:44 68.9 °F /  20.5 °C 36.7 °F /  2.6 °C 29.8in /  1009.6hPa Sur 1.8mph /  2.9km/h 8.1mph /  13km/h 30.6% 0in /  0.0mm
22:49 69.1 °F /  20.6 °C 36.3 °F /  2.4 °C 29.8in /  1009.8hPa Sur 2.5mph /  4km/h 8mph /  12.9km/h 30% 0in /  0.0mm
22:54 69.1 °F /  20.6 °C 36.3 °F /  2.4 °C 29.8in /  1009.8hPa Sur 3.6mph /  5.8km/h 6mph /  9.7km/h 30% 0in /  0.0mm
22:59 69.1 °F /  20.6 °C 36.3 °F /  2.4 °C 29.8in /  1009.8hPa SSE 3.1mph /  5km/h 5mph /  8km/h 30% 0in /  0.0mm
23:04 69.1 °F /  20.6 °C 37 °F /  2.8 °C 29.8in /  1010.0hPa SSE 2.4mph /  3.9km/h 5mph /  8km/h 30.8% 0in /  0.0mm
23:09 69.1 °F /  20.6 °C 37.2 °F /  2.9 °C 29.8in /  1010.0hPa SSE 1.5mph /  2.4km/h 2mph /  3.2km/h 31% 0in /  0.0mm
23:14 68.7 °F /  20.4 °C 37.6 °F /  3.1 °C 29.8in /  1010.0hPa Calm   2.9mph /  4.7km/h 31.8% 0in /  0.0mm
23:19 68.4 °F /  20.2 °C 38.3 °F /  3.5 °C 29.8in /  1010.2hPa NNO 0.7mph /  1.1km/h 4.6mph /  7.4km/h 33.1% 0in /  0.0mm
23:24 67.8 °F /  19.9 °C 38.5 °F /  3.6 °C 29.8in /  1010.2hPa NNO 1.8mph /  2.9km/h 5mph /  8km/h 34.1% 0in /  0.0mm
23:29 67.5 °F /  19.7 °C 39 °F /  3.9 °C 29.8in /  1010.2hPa NNE 2.1mph /  3.3km/h 5mph /  8km/h 35.4% 0in /  0.0mm
23:34 66.9 °F /  19.4 °C 39.6 °F /  4.2 °C 29.8in /  1010.3hPa North 2.4mph /  3.9km/h 5mph /  8km/h 36.6% 0in /  0.0mm
23:39 66.7 °F /  19.3 °C 39.6 °F /  4.2 °C 29.8in /  1010.3hPa NNO 2.4mph /  3.9km/h 5.9mph /  9.5km/h 37.1% 0in /  0.0mm
23:44 66.4 °F /  19.1 °C 39.9 °F /  4.4 °C 29.8in /  1010.3hPa North 2.4mph /  3.9km/h 6mph /  9.7km/h 38% 0in /  0.0mm
23:49 66.2 °F /  19 °C 39.7 °F /  4.3 °C 29.8in /  1010.3hPa NNO 2.6mph /  4.2km/h 5mph /  8km/h 38% 0in /  0.0mm
23:54 66 °F /  18.9 °C 39.7 °F /  4.3 °C 29.8in /  1010.3hPa North 2.9mph /  4.7km/h 5mph /  8km/h 38% 0in /  0.0mm
23:59 66 °F /  18.9 °C 39.7 °F /  4.3 °C 29.8in /  1010.3hPa NNO 2.5mph /  4.1km/h 5mph /  8km/h 38% 0in /  0.0mm
Murcia-Puente Tocinos, España
Compliments of Weather Underground - 3 mb

La estación de MeteoMurcia.com, publica sus datos en los siguientes proyectos:

Weather Underground PWS IMURCIAP2 Meteoclimatic www.awekas.at

W3Counter
Web Analytics